createdAt,value
2022-11-05T00:02:00.947Z,93867.69
2022-11-05T00:04:46.488Z,93868.56
2022-11-05T00:07:50.367Z,93867.66
2022-11-05T00:10:28.366Z,93873.78
2022-11-05T00:13:16.727Z,93874.56
2022-11-05T00:16:02.618Z,93873.47
2022-11-05T00:18:29.495Z,93882.41
2022-11-05T00:20:57.210Z,93882.88
2022-11-05T00:23:42.934Z,93882.25
2022-11-05T00:26:11.819Z,93890.09
2022-11-05T00:28:42.241Z,93887.75
2022-11-05T00:31:13.764Z,93880.53
2022-11-05T00:33:43.628Z,93889.97
2022-11-05T00:36:12.199Z,93879.59
2022-11-05T00:38:38.961Z,93881.31
2022-11-05T00:41:05.817Z,93884.94
2022-11-05T00:43:51.010Z,93890.75
2022-11-05T00:46:17.649Z,93896.06
2022-11-05T00:49:02.810Z,93901.72
2022-11-05T00:51:29.466Z,93899.03
2022-11-05T00:53:56.142Z,93909.41
2022-11-05T00:56:22.853Z,93909.56
2022-11-05T00:58:49.537Z,93911.13
2022-11-05T01:01:16.260Z,93913.78
2022-11-05T01:03:46.215Z,93910.03
2022-11-05T01:06:17.579Z,93906.28
2022-11-05T01:08:45.887Z,93917.88
2022-11-05T01:11:33.798Z,93920.97
2022-11-05T01:14:01.586Z,93925.53
2022-11-05T01:16:28.341Z,93928.81
2022-11-05T01:18:55.054Z,93925.06
2022-11-05T01:21:21.680Z,93934.94
2022-11-05T01:23:48.877Z,93937.91
2022-11-05T01:26:15.545Z,93939.81
2022-11-05T01:28:42.323Z,93936.97
2022-11-05T01:31:08.993Z,93941.88
2022-11-05T01:33:35.676Z,93948.28
2022-11-05T01:36:04.481Z,93959.75
2022-11-05T01:38:31.089Z,93950.00
2022-11-05T01:40:57.718Z,93951.72
2022-11-05T01:43:24.388Z,93954.25
2022-11-05T01:45:55.230Z,93962.72
2022-11-05T01:48:28.150Z,93958.97
2022-11-05T01:51:04.976Z,93960.97
2022-11-05T01:53:46.939Z,93958.97
2022-11-05T01:56:29.978Z,93954.25
2022-11-05T01:59:06.277Z,93955.66
2022-11-05T02:01:33.613Z,93958.78
2022-11-05T02:04:04.704Z,93957.34
2022-11-05T02:06:34.883Z,93960.31
2022-11-05T02:09:12.951Z,93955.78
2022-11-05T02:11:39.592Z,93954.66
2022-11-05T02:14:06.538Z,93957.63
2022-11-05T02:16:48.457Z,93955.28
2022-11-05T02:19:40.207Z,93952.16
2022-11-05T02:22:25.690Z,93949.16
2022-11-05T02:25:29.916Z,93955.47
2022-11-05T02:28:34.119Z,93955.28
2022-11-05T02:31:08.945Z,93959.66
2022-11-05T02:33:35.573Z,93959.81
2022-11-05T02:36:21.025Z,93967.03
2022-11-05T02:39:06.178Z,93969.88
2022-11-05T02:41:38.596Z,93964.69
2022-11-05T02:44:12.861Z,93968.13
2022-11-05T02:46:56.353Z,93973.94
2022-11-05T02:49:46.127Z,93970.19
2022-11-05T02:52:23.493Z,93968.44
2022-11-05T02:55:08.788Z,93968.91
2022-11-05T02:57:36.796Z,93978.66
2022-11-05T03:00:28.823Z,93973.47
2022-11-05T03:02:55.570Z,93975.06
2022-11-05T03:05:32.933Z,93975.84
2022-11-05T03:08:11.550Z,93972.88
2022-11-05T03:10:52.959Z,93975.22
2022-11-05T03:13:29.522Z,93976.00
2022-11-05T03:16:17.313Z,93981.50
2022-11-05T03:18:58.483Z,93985.09
2022-11-05T03:21:56.381Z,93982.28
2022-11-05T03:24:31.607Z,93982.28
2022-11-05T03:27:12.893Z,93986.22
2022-11-05T03:29:45.029Z,93992.81
2022-11-05T03:32:14.617Z,93994.38
2022-11-05T03:34:51.985Z,93995.94
2022-11-05T03:37:22.514Z,94001.28
2022-11-05T03:39:52.786Z,94004.41
2022-11-05T03:42:23.797Z,94011.31
2022-11-05T03:44:55.126Z,94009.13
2022-11-05T03:47:25.799Z,94009.59
2022-11-05T03:49:58.643Z,94006.44
2022-11-05T03:52:29.955Z,94011.78
2022-11-05T03:54:56.823Z,94013.97
2022-11-05T03:57:31.426Z,94015.22
2022-11-05T03:59:58.080Z,94019.94
2022-11-05T04:02:27.013Z,94017.28
2022-11-05T04:04:54.631Z,94027.81
2022-11-05T04:07:40.007Z,94032.19
2022-11-05T04:10:25.333Z,94033.78
2022-11-05T04:13:10.869Z,94034.88
2022-11-05T04:15:56.510Z,94040.81
2022-11-05T04:18:23.271Z,94041.78
2022-11-05T04:21:08.617Z,94045.22
2022-11-05T04:23:53.890Z,94050.38
2022-11-05T04:26:23.496Z,94052.09
2022-11-05T04:29:09.358Z,94056.78
2022-11-05T04:31:36.069Z,94057.28
2022-11-05T04:34:02.897Z,94054.00
2022-11-05T04:36:29.771Z,94061.06
2022-11-05T04:38:56.499Z,94062.63
2022-11-05T04:41:23.336Z,94068.28
2022-11-05T04:43:50.023Z,94069.84
2022-11-05T04:46:16.668Z,94058.09
2022-11-05T04:48:43.407Z,94061.22
2022-11-05T04:51:10.049Z,94070.78
2022-11-05T04:53:36.722Z,94074.06
2022-11-05T04:56:18.325Z,94071.09
2022-11-05T04:58:45.248Z,94072.97
2022-11-05T05:01:23.326Z,94083.47
2022-11-05T05:03:51.524Z,94075.00
2022-11-05T05:06:19.045Z,94072.03
2022-11-05T05:08:49.802Z,94084.25
2022-11-05T05:11:18.712Z,94080.34
2022-11-05T05:13:45.863Z,94077.66
2022-11-05T05:16:30.581Z,94087.72
2022-11-05T05:18:57.307Z,94084.44
2022-11-05T05:21:39.284Z,94087.09
2022-11-05T05:24:15.962Z,94087.09
2022-11-05T05:26:45.810Z,94090.56
2022-11-05T05:29:12.912Z,94089.47
2022-11-05T05:31:40.119Z,94099.34
2022-11-05T05:34:08.378Z,94099.81
2022-11-05T05:36:35.024Z,94096.84
2022-11-05T05:39:01.947Z,94099.19
2022-11-05T05:41:28.587Z,94105.63
2022-11-05T05:43:55.298Z,94106.72
2022-11-05T05:46:21.989Z,94105.16
2022-11-05T05:48:50.919Z,94105.63
2022-11-05T05:51:18.673Z,94110.47
2022-11-05T05:53:45.484Z,94108.75
2022-11-05T05:56:15.008Z,94126.94
2022-11-05T05:58:42.209Z,94125.66
2022-11-05T06:01:18.348Z,94129.47
2022-11-05T06:03:46.388Z,94129.28
2022-11-05T06:06:14.965Z,94135.25
2022-11-05T06:08:42.776Z,94131.34
2022-11-05T06:11:09.904Z,94134.47
2022-11-05T06:13:37.481Z,94140.44
2022-11-05T06:16:06.781Z,94142.00
2022-11-05T06:18:34.367Z,94142.78
2022-11-05T06:21:06.802Z,94146.88
2022-11-05T06:23:35.380Z,94150.31
2022-11-05T06:26:03.981Z,94161.47
2022-11-05T06:28:31.152Z,94162.25
2022-11-05T06:30:58.134Z,94168.06
2022-11-05T06:33:25.573Z,94176.06
2022-11-05T06:35:53.254Z,94180.63
2022-11-05T06:38:20.452Z,94174.50
2022-11-05T06:40:47.116Z,94182.19
2022-11-05T06:43:14.148Z,94183.75
2022-11-05T06:45:41.110Z,94182.50
2022-11-05T06:48:07.800Z,94190.97
2022-11-05T06:50:34.614Z,94197.09
2022-11-05T06:53:04.594Z,94198.53
2022-11-05T06:55:32.036Z,94202.91
2022-11-05T06:57:59.026Z,94205.75
2022-11-05T07:00:26.026Z,94205.44
2022-11-05T07:02:52.845Z,94200.59
2022-11-05T07:05:19.495Z,94211.44
2022-11-05T07:07:46.115Z,94205.94
2022-11-05T07:10:16.141Z,94216.13
2022-11-05T07:12:43.430Z,94227.09
2022-11-05T07:15:12.110Z,94227.41
2022-11-05T07:17:39.831Z,94239.16
2022-11-05T07:20:08.259Z,94244.19
2022-11-05T07:22:35.840Z,94248.44
2022-11-05T07:25:02.993Z,94252.81
2022-11-05T07:27:29.633Z,94255.47
2022-11-05T07:29:56.475Z,94254.34
2022-11-05T07:32:23.326Z,94268.59
2022-11-05T07:34:50.015Z,94263.56
2022-11-05T07:37:16.871Z,94265.13
2022-11-05T07:39:43.611Z,94264.69
2022-11-05T07:42:13.498Z,94268.44
2022-11-05T07:44:40.586Z,94268.13
2022-11-05T07:47:07.588Z,94270.91
2022-11-05T07:49:34.227Z,94263.84
2022-11-05T07:52:01.019Z,94279.03
2022-11-05T07:54:27.818Z,94275.09
2022-11-05T07:56:54.520Z,94280.94
2022-11-05T07:59:21.242Z,94276.06
2022-11-05T08:01:48.072Z,94277.03
2022-11-05T08:04:14.911Z,94289.59
2022-11-05T08:06:41.543Z,94288.31
2022-11-05T08:09:09.206Z,94288.63
2022-11-05T08:11:35.960Z,94294.91
2022-11-05T08:14:02.674Z,94302.00
2022-11-05T08:16:29.374Z,94302.00
2022-11-05T08:18:56.093Z,94298.84
2022-11-05T08:21:22.728Z,94302.31
2022-11-05T08:23:49.424Z,94294.44
2022-11-05T08:26:16.105Z,94300.06
2022-11-05T08:28:42.778Z,94305.09
2022-11-05T08:31:09.411Z,94311.53
2022-11-05T08:33:36.117Z,94317.81
2022-11-05T08:36:04.358Z,94306.56
2022-11-05T08:38:31.059Z,94307.00
2022-11-05T08:40:58.578Z,94308.28
2022-11-05T08:43:25.855Z,94312.69
2022-11-05T08:45:52.738Z,94311.44
2022-11-05T08:48:19.501Z,94314.75
2022-11-05T08:50:47.867Z,94324.03
2022-11-05T08:53:15.503Z,94321.06
2022-11-05T08:55:43.989Z,94325.31
2022-11-05T08:58:12.832Z,94318.88
2022-11-05T09:00:40.195Z,94325.97
2022-11-05T09:03:09.189Z,94326.13
2022-11-05T09:05:40.436Z,94325.03
2022-11-05T09:08:09.973Z,94328.47
2022-11-05T09:10:37.160Z,94328.03
2022-11-05T09:13:04.670Z,94329.63
2022-11-05T09:15:31.486Z,94331.19
2022-11-05T09:17:58.162Z,94331.22
2022-11-05T09:20:25.387Z,94329.19
2022-11-05T09:22:52.100Z,94329.97
2022-11-05T09:25:18.747Z,94336.25
2022-11-05T09:27:45.543Z,94337.22
2022-11-05T09:30:13.950Z,94345.75
2022-11-05T09:32:41.379Z,94344.03
2022-11-05T09:35:08.838Z,94346.53
2022-11-05T09:37:38.706Z,94354.06
2022-11-05T09:40:06.733Z,94349.50
2022-11-05T09:42:39.740Z,94355.66
2022-11-05T09:45:20.931Z,94359.44
2022-11-05T09:47:51.491Z,94358.84
2022-11-05T09:50:38.543Z,94357.13
2022-11-05T09:53:05.438Z,94362.00
2022-11-05T09:55:41.988Z,94359.97
2022-11-05T09:58:24.534Z,94355.13
2022-11-05T10:00:55.221Z,94363.00
2022-11-05T10:03:24.744Z,94366.81
2022-11-05T10:05:53.786Z,94365.06
2022-11-05T10:08:23.749Z,94368.38
2022-11-05T10:10:56.439Z,94364.19
2022-11-05T10:13:42.390Z,94359.13
2022-11-05T10:16:30.947Z,94360.81
2022-11-05T10:19:06.164Z,94362.81
2022-11-05T10:22:04.179Z,94365.34
2022-11-05T10:24:21.427Z,94364.69
2022-11-05T10:26:51.463Z,94368.81
2022-11-05T10:29:30.323Z,94376.72
2022-11-05T10:31:58.691Z,94383.03
2022-11-05T10:34:30.907Z,94379.59
2022-11-05T10:36:57.904Z,94385.72
2022-11-05T10:39:27.938Z,94378.00
2022-11-05T10:42:13.513Z,94383.19
2022-11-05T10:44:45.237Z,94381.44
2022-11-05T10:47:31.843Z,94377.25
2022-11-05T10:50:01.167Z,94372.75
2022-11-05T10:52:52.573Z,94380.22
2022-11-05T10:55:23.643Z,94376.31
2022-11-05T10:57:50.604Z,94372.94
2022-11-05T11:00:17.194Z,94385.91
2022-11-05T11:02:50.322Z,94388.75
2022-11-05T11:05:32.830Z,94388.69
2022-11-05T11:08:11.575Z,94398.03
2022-11-05T11:10:48.861Z,94404.53
2022-11-05T11:13:21.235Z,94405.84
2022-11-05T11:15:50.942Z,94413.06
2022-11-05T11:18:42.008Z,94418.28
2022-11-05T11:21:23.085Z,94417.97
2022-11-05T11:23:55.846Z,94418.28
2022-11-05T11:26:24.669Z,94419.53
2022-11-05T11:28:59.413Z,94415.88
2022-11-05T11:31:29.276Z,94417.44
2022-11-05T11:34:19.029Z,94416.22
2022-11-05T11:36:48.610Z,94420.59
2022-11-05T11:39:22.141Z,94420.28
2022-11-05T11:41:55.430Z,94421.38
2022-11-05T11:44:27.383Z,94422.59
2022-11-05T11:47:04.963Z,94426.22
2022-11-05T11:49:58.225Z,94426.06
2022-11-05T11:52:31.371Z,94422.63
2022-11-05T11:55:13.334Z,94429.72
2022-11-05T11:57:50.607Z,94431.63
2022-11-05T12:00:18.598Z,94426.72
2022-11-05T12:03:01.913Z,94435.56
2022-11-05T12:05:39.012Z,94432.91
2022-11-05T12:08:24.118Z,94443.53
2022-11-05T12:11:04.445Z,94444.63
2022-11-05T12:13:56.662Z,94443.19
2022-11-05T12:16:42.014Z,94448.25
2022-11-05T12:19:11.637Z,94442.56
2022-11-05T12:22:00.438Z,94436.41
2022-11-05T12:24:45.883Z,94447.56
2022-11-05T12:27:40.342Z,94443.78
2022-11-05T12:30:21.810Z,94451.91
2022-11-05T12:32:54.782Z,94448.47
2022-11-05T12:35:21.431Z,94450.97
2022-11-05T12:38:18.507Z,94452.97
2022-11-05T12:40:56.012Z,94445.09
2022-11-05T12:43:41.402Z,94446.53
2022-11-05T12:46:11.096Z,94458.91
2022-11-05T12:48:47.091Z,94452.41
2022-11-05T12:51:38.837Z,94462.00
2022-11-05T12:54:31.475Z,94456.34
2022-11-05T12:57:01.058Z,94456.22
2022-11-05T12:59:33.580Z,94454.34
2022-11-05T13:02:38.952Z,94451.22
2022-11-05T13:05:14.948Z,94447.31
2022-11-05T13:08:04.864Z,94457.81
2022-11-05T13:10:36.912Z,94455.69
2022-11-05T13:13:16.442Z,94455.84
2022-11-05T13:15:50.773Z,94454.41
2022-11-05T13:18:24.156Z,94448.09
2022-11-05T13:20:53.744Z,94450.44
2022-11-05T13:23:31.809Z,94457.19
2022-11-05T13:26:19.526Z,94455.44
2022-11-05T13:28:49.452Z,94453.44
2022-11-05T13:31:21.631Z,94453.38
2022-11-05T13:33:51.242Z,94455.44
2022-11-05T13:36:49.515Z,94461.56
2022-11-05T13:39:41.801Z,94465.47
2022-11-05T13:42:36.633Z,94470.00
2022-11-05T13:45:29.634Z,94473.28
2022-11-05T13:48:05.624Z,94471.09
2022-11-05T13:50:53.857Z,94474.50
2022-11-05T13:53:50.870Z,94472.88
2022-11-05T13:56:21.977Z,94474.44
2022-11-05T13:59:26.882Z,94480.56
2022-11-05T14:02:29.170Z,94478.81
2022-11-05T14:05:01.398Z,94483.97
2022-11-05T14:07:47.675Z,94482.41
2022-11-05T14:10:26.363Z,94480.22
2022-11-05T14:12:55.728Z,94482.09
2022-11-05T14:15:26.493Z,94485.56
2022-11-05T14:17:56.490Z,94483.97
2022-11-05T14:20:46.466Z,94485.84
2022-11-05T14:23:25.501Z,94489.00
2022-11-05T14:26:13.073Z,94483.78
2022-11-05T14:28:49.122Z,94488.97
2022-11-05T14:31:18.830Z,94481.56
2022-11-05T14:34:01.149Z,94482.50
2022-11-05T14:36:39.240Z,94489.41
2022-11-05T14:39:14.825Z,94484.50
2022-11-05T14:42:02.925Z,94495.16
2022-11-05T14:44:33.234Z,94492.97
2022-11-05T14:47:04.933Z,94500.56
2022-11-05T14:49:49.260Z,94493.97
2022-11-05T14:52:18.761Z,94496.31
2022-11-05T14:54:50.705Z,94507.31
2022-11-05T14:57:42.366Z,94513.13
2022-11-05T15:00:40.491Z,94507.41
2022-11-05T15:03:46.259Z,94511.28
2022-11-05T15:06:32.075Z,94504.38
2022-11-05T15:09:26.824Z,94504.53
2022-11-05T15:11:56.556Z,94509.69
2022-11-05T15:14:34.810Z,94513.56
2022-11-05T15:17:22.545Z,94514.81
2022-11-05T15:19:51.239Z,94513.75
2022-11-05T15:22:34.564Z,94507.78
2022-11-05T15:25:05.667Z,94513.94
2022-11-05T15:27:46.500Z,94509.00
2022-11-05T15:30:17.297Z,94521.25
2022-11-05T15:32:44.180Z,94516.03
2022-11-05T15:35:29.744Z,94518.22
2022-11-05T15:38:02.061Z,94523.53
2022-11-05T15:40:33.511Z,94526.06
2022-11-05T15:43:21.726Z,94528.38
2022-11-05T15:46:03.997Z,94524.16
2022-11-05T15:48:31.797Z,94517.25
2022-11-05T15:50:59.062Z,94524.16
2022-11-05T15:54:16.074Z,94527.69
2022-11-05T15:56:50.293Z,94533.13
2022-11-05T15:59:20.481Z,94531.84
2022-11-05T16:01:51.877Z,94532.94
2022-11-05T16:04:27.923Z,94534.06
2022-11-05T16:07:06.588Z,94536.41
2022-11-05T16:09:36.133Z,94534.66
2022-11-05T16:12:18.024Z,94536.03
2022-11-05T16:14:56.628Z,94541.56
2022-11-05T16:17:25.638Z,94546.41
2022-11-05T16:19:53.179Z,94536.84
2022-11-05T16:22:20.729Z,94540.00
2022-11-05T16:24:48.042Z,94543.56
2022-11-05T16:27:20.878Z,94546.53
2022-11-05T16:29:49.144Z,94538.81
2022-11-05T16:32:31.728Z,94544.16
2022-11-05T16:35:06.740Z,94544.66
2022-11-05T16:37:41.724Z,94553.72
2022-11-05T16:40:24.283Z,94561.75
2022-11-05T16:42:52.068Z,94565.50
2022-11-05T16:45:21.955Z,94566.28
2022-11-05T16:47:49.026Z,94564.69
2022-11-05T16:50:17.425Z,94562.03
2022-11-05T16:52:46.009Z,94560.25
2022-11-05T16:55:14.789Z,94567.47
2022-11-05T16:57:43.481Z,94572.63
2022-11-05T17:00:16.620Z,94574.81
2022-11-05T17:02:44.105Z,94575.56
2022-11-05T17:05:26.285Z,94570.06
2022-11-05T17:07:53.712Z,94573.03
2022-11-05T17:10:21.843Z,94574.13
2022-11-05T17:12:49.239Z,94572.34
2022-11-05T17:15:36.172Z,94570.66
2022-11-05T17:18:04.822Z,94573.34
2022-11-05T17:20:43.254Z,94565.94
2022-11-05T17:23:12.286Z,94575.63
2022-11-05T17:25:40.720Z,94578.56
2022-11-05T17:28:07.757Z,94587.56
2022-11-05T17:30:35.079Z,94586.66
2022-11-05T17:33:02.070Z,94585.28
2022-11-05T17:35:28.974Z,94583.41
2022-11-05T17:37:55.705Z,94571.16
2022-11-05T17:40:23.675Z,94582.13
2022-11-05T17:42:51.540Z,94594.19
2022-11-05T17:45:18.714Z,94587.56
2022-11-05T17:47:45.399Z,94595.84
2022-11-05T17:50:14.783Z,94593.19
2022-11-05T17:52:41.468Z,94596.16
2022-11-05T17:55:16.600Z,94586.38
2022-11-05T17:57:47.357Z,94603.16
2022-11-05T18:00:22.163Z,94607.22
2022-11-05T18:02:51.716Z,94609.59
2022-11-05T18:05:20.261Z,94609.41
2022-11-05T18:07:48.366Z,94605.75
2022-11-05T18:10:15.864Z,94610.59
2022-11-05T18:12:43.493Z,94618.09
2022-11-05T18:15:10.454Z,94619.19
2022-11-05T18:17:37.429Z,94621.34
2022-11-05T18:20:11.671Z,94616.09
2022-11-05T18:22:40.117Z,94621.44
2022-11-05T18:25:08.151Z,94617.78
2022-11-05T18:27:35.416Z,94617.41
2022-11-05T18:30:02.193Z,94620.16
2022-11-05T18:32:28.844Z,94622.31
2022-11-05T18:34:55.487Z,94624.28
2022-11-05T18:37:22.393Z,94626.44
2022-11-05T18:39:53.087Z,94629.44
2022-11-05T18:42:21.129Z,94627.06
2022-11-05T18:44:48.325Z,94635.84
2022-11-05T18:47:15.170Z,94630.09
2022-11-05T18:49:41.851Z,94635.00
2022-11-05T18:52:08.663Z,94631.25
2022-11-05T18:54:35.455Z,94630.47
2022-11-05T18:57:02.365Z,94631.56
2022-11-05T18:59:39.260Z,94631.63
2022-11-05T19:02:08.650Z,94625.31
2022-11-05T19:04:38.606Z,94625.97
2022-11-05T19:07:07.362Z,94624.47
2022-11-05T19:09:35.333Z,94619.25
2022-11-05T19:12:03.271Z,94619.53
2022-11-05T19:14:30.356Z,94627.59
2022-11-05T19:16:58.349Z,94628.97
2022-11-05T19:19:25.667Z,94638.81
2022-11-05T19:21:52.414Z,94635.06
2022-11-05T19:24:19.106Z,94635.44
2022-11-05T19:26:46.825Z,94640.53
2022-11-05T19:29:13.809Z,94640.94
2022-11-05T19:31:40.482Z,94639.72
2022-11-05T19:34:07.216Z,94641.94
2022-11-05T19:36:34.259Z,94641.47
2022-11-05T19:39:04.164Z,94637.56
2022-11-05T19:41:31.043Z,94644.25
2022-11-05T19:43:58.832Z,94640.06
2022-11-05T19:46:25.766Z,94639.50
2022-11-05T19:48:53.113Z,94637.34
2022-11-05T19:51:22.754Z,94639.56
2022-11-05T19:53:51.716Z,94642.16
2022-11-05T19:56:21.808Z,94639.78
2022-11-05T19:58:49.263Z,94636.09
2022-11-05T20:01:17.311Z,94631.31
2022-11-05T20:03:44.701Z,94633.66
2022-11-05T20:06:15.342Z,94643.53
2022-11-05T20:09:07.208Z,94641.94
2022-11-05T20:11:29.518Z,94638.59
2022-11-05T20:13:57.149Z,94641.81
2022-11-05T20:16:30.036Z,94639.16
2022-11-05T20:18:57.427Z,94636.22
2022-11-05T20:21:24.104Z,94648.13
2022-11-05T20:23:50.830Z,94649.78
2022-11-05T20:26:17.466Z,94639.50
2022-11-05T20:28:44.320Z,94645.94
2022-11-05T20:31:13.775Z,94651.25
2022-11-05T20:33:41.800Z,94653.69
2022-11-05T20:36:13.107Z,94657.25
2022-11-05T20:38:39.995Z,94663.69
2022-11-05T20:41:11.741Z,94665.59
2022-11-05T20:43:41.116Z,94670.59
2022-11-05T20:46:09.913Z,94667.25
2022-11-05T20:48:36.797Z,94671.47
2022-11-05T20:51:09.035Z,94678.97
2022-11-05T20:53:36.660Z,94672.91
2022-11-05T20:56:07.783Z,94673.78
2022-11-05T20:58:36.493Z,94680.69
2022-11-05T21:01:04.876Z,94675.16
2022-11-05T21:03:31.852Z,94676.50
2022-11-05T21:06:00.002Z,94679.38
2022-11-05T21:08:28.228Z,94676.94
2022-11-05T21:10:55.867Z,94680.38
2022-11-05T21:13:23.576Z,94681.38
2022-11-05T21:15:52.700Z,94686.63
2022-11-05T21:18:21.263Z,94682.31
2022-11-05T21:20:48.117Z,94682.00
2022-11-05T21:23:15.773Z,94684.56
2022-11-05T21:25:44.070Z,94685.84
2022-11-05T21:28:12.808Z,94685.34
2022-11-05T21:30:45.056Z,94693.38
2022-11-05T21:33:13.862Z,94691.00
2022-11-05T21:35:41.753Z,94689.63
2022-11-05T21:38:08.470Z,94686.56
2022-11-05T21:40:35.196Z,94679.19
2022-11-05T21:43:01.902Z,94675.44
2022-11-05T21:45:28.600Z,94676.47
2022-11-05T21:47:56.067Z,94680.16
2022-11-05T21:50:43.644Z,94670.84
2022-11-05T21:53:35.834Z,94681.16
2022-11-05T21:56:26.170Z,94672.69
2022-11-05T21:59:11.517Z,94664.97
2022-11-05T22:01:38.312Z,94668.38
2022-11-05T22:04:05.114Z,94666.28
2022-11-05T22:06:34.808Z,94655.44
2022-11-05T22:09:01.493Z,94655.81
2022-11-05T22:11:28.525Z,94655.84
2022-11-05T22:13:55.220Z,94661.72
2022-11-05T22:16:21.866Z,94655.41
2022-11-05T22:18:48.531Z,94672.38
2022-11-05T22:21:17.175Z,94672.38
2022-11-05T22:23:43.918Z,94668.19
2022-11-05T22:26:10.569Z,94668.19
2022-11-05T22:28:37.251Z,94669.56
2022-11-05T22:31:04.062Z,94673.22
2022-11-05T22:33:31.340Z,94651.22
2022-11-05T22:35:58.000Z,94657.91
2022-11-05T22:38:24.681Z,94653.16
2022-11-05T22:40:51.331Z,94657.13
2022-11-05T22:43:18.039Z,94651.84
2022-11-05T22:45:45.590Z,94646.78
2022-11-05T22:48:12.484Z,94648.09
2022-11-05T22:50:39.789Z,94649.63
2022-11-05T22:53:06.590Z,94649.16
2022-11-05T22:55:33.282Z,94649.97
2022-11-05T22:57:59.978Z,94642.53
2022-11-05T23:00:35.843Z,94652.28
2022-11-05T23:03:03.099Z,94648.56
2022-11-05T23:05:30.068Z,94634.72
2022-11-05T23:08:15.644Z,94631.84
2022-11-05T23:11:01.092Z,94632.84
2022-11-05T23:13:27.726Z,94633.03
2022-11-05T23:16:12.991Z,94633.53
2022-11-05T23:18:58.295Z,94632.44
2022-11-05T23:21:43.784Z,94640.34
2022-11-05T23:24:12.698Z,94637.41
2022-11-05T23:26:51.938Z,94638.72
2022-11-05T23:29:20.887Z,94638.81
2022-11-05T23:32:06.191Z,94636.25
2022-11-05T23:34:33.301Z,94636.97
2022-11-05T23:37:18.585Z,94642.06
2022-11-05T23:39:45.224Z,94633.94
2022-11-05T23:42:30.512Z,94630.78
2022-11-05T23:45:15.703Z,94630.50
2022-11-05T23:48:01.574Z,94627.84
2022-11-05T23:50:29.767Z,94628.38
2022-11-05T23:52:56.791Z,94626.75
2022-11-05T23:55:24.261Z,94628.09
2022-11-05T23:57:51.511Z,94632.31
